createdAt,value
2018-07-04T00:04:34.202Z,17.1
2018-07-04T00:09:34.153Z,17.1
2018-07-04T00:14:34.126Z,16.9
2018-07-04T00:19:34.095Z,16.9
2018-07-04T00:24:35.074Z,16.9
2018-07-04T00:29:34.039Z,16.9
2018-07-04T00:34:42.089Z,16.8
2018-07-04T00:39:41.053Z,16.7
2018-07-04T00:44:41.028Z,16.7
2018-07-04T00:49:43.036Z,16.6
2018-07-04T00:54:41.994Z,16.6
2018-07-04T00:59:42.966Z,16.7
2018-07-04T01:05:04.935Z,16.6
2018-07-04T01:10:03.095Z,16.6
2018-07-04T01:15:04.057Z,16.5
2018-07-04T01:20:03.037Z,16.5
2018-07-04T01:25:04.025Z,16.3
2018-07-04T01:30:04.976Z,16.3
2018-07-04T01:35:02.966Z,16.1
2018-07-04T01:40:09.970Z,16
2018-07-04T01:45:08.932Z,15.7
2018-07-04T01:50:08.939Z,15.7
2018-07-04T01:55:11.908Z,15.7
2018-07-04T02:00:10.874Z,15.7
2018-07-04T02:05:10.864Z,15.2
2018-07-04T02:10:21.933Z,15.4
2018-07-04T02:15:22.901Z,15.4
2018-07-04T02:20:21.875Z,15.3
2018-07-04T02:25:21.852Z,15.2
2018-07-04T02:30:23.822Z,15
2018-07-04T02:35:21.799Z,15
2018-07-04T02:40:35.894Z,15.1
2018-07-04T02:45:33.846Z,15
2018-07-04T02:50:34.797Z,15
2018-07-04T02:55:36.823Z,15
2018-07-04T03:00:36.788Z,15
2018-07-04T03:05:36.763Z,14.8
2018-07-04T03:10:46.812Z,14.7
2018-07-04T03:15:48.807Z,14.7
2018-07-04T03:20:45.794Z,14.6
2018-07-04T03:25:46.717Z,14.7
2018-07-04T03:30:45.699Z,14.8
2018-07-04T03:35:45.696Z,14.6
2018-07-04T03:40:54.737Z,14.7
2018-07-04T03:45:54.719Z,14.8
2018-07-04T03:50:54.700Z,14.8
2018-07-04T03:55:56.649Z,14.8
2018-07-04T04:00:54.676Z,14.9
2018-07-04T04:05:55.612Z,14.9
2018-07-04T04:10:59.614Z,15
2018-07-04T04:16:00.586Z,15.2
2018-07-04T04:20:59.549Z,15.2
2018-07-04T04:25:59.538Z,15.3
2018-07-04T04:31:01.524Z,15.4
2018-07-04T04:35:59.486Z,15.5
2018-07-04T04:41:00.458Z,15.7
2018-07-04T04:46:09.518Z,15.8
2018-07-04T04:51:08.488Z,16
2018-07-04T04:56:08.441Z,16.2
2018-07-04T05:01:10.428Z,16.3
2018-07-04T05:06:08.419Z,16.6
2018-07-04T05:11:09.347Z,16.8
2018-07-04T05:16:12.363Z,17
2018-07-04T05:21:10.361Z,17.4
2018-07-04T05:26:11.299Z,17.4
2018-07-04T05:31:19.346Z,18
2018-07-04T05:36:19.324Z,18.4
2018-07-04T05:41:19.289Z,18.8
2018-07-04T05:46:29.195Z,19.2
2018-07-04T05:51:30.340Z,19.4
2018-07-04T05:56:28.287Z,19.7
2018-07-04T06:01:29.274Z,20.1
2018-07-04T06:06:28.255Z,20.5
2018-07-04T06:11:28.205Z,20.9
2018-07-04T06:16:30.180Z,21.2
2018-07-04T06:21:40.268Z,21.5
2018-07-04T06:26:39.282Z,21.9
2018-07-04T06:31:40.213Z,22.1
2018-07-04T06:36:41.171Z,22.3
2018-07-04T06:41:40.153Z,22.7
2018-07-04T06:46:40.122Z,23
2018-07-04T06:51:57.260Z,23.3
2018-07-04T06:56:55.207Z,23.1
2018-07-04T07:01:55.208Z,23.5
2018-07-04T07:06:57.170Z,23.6
2018-07-04T07:11:56.144Z,23.8
2018-07-04T07:16:57.105Z,24.3
2018-07-04T07:21:56.074Z,24.7
2018-07-04T07:27:12.207Z,24.8
2018-07-04T07:32:13.191Z,25
2018-07-04T07:37:15.179Z,25.3
2018-07-04T07:42:12.124Z,25.5
2018-07-04T07:47:12.078Z,25.9
2018-07-04T07:52:23.509Z,26.2
2018-07-04T07:57:23.122Z,26.1
2018-07-04T08:02:23.117Z,26.3
2018-07-04T08:07:24.078Z,26.6
2018-07-04T08:12:23.047Z,27
2018-07-04T08:17:24.032Z,26.4
2018-07-04T08:22:40.172Z,26.9
2018-07-04T08:27:38.119Z,27.2
2018-07-04T08:32:38.100Z,26.8
2018-07-04T08:37:38.040Z,26.5
2018-07-04T08:42:38.029Z,26.7
2018-07-04T08:47:39.010Z,26.9
2018-07-04T08:52:51.128Z,26.7
2018-07-04T08:57:52.082Z,27.1
2018-07-04T09:02:55.074Z,27.1
2018-07-04T09:07:55.228Z,27.4
2018-07-04T09:12:55.046Z,27.8
2018-07-04T09:17:57.007Z,28.2
2018-07-04T09:23:06.058Z,28.1
2018-07-04T09:28:05.049Z,28.8
2018-07-04T09:33:05.011Z,29.2
2018-07-04T09:38:06.972Z,29.5
2018-07-04T09:43:04.983Z,29
2018-07-04T09:48:04.920Z,29
2018-07-04T09:53:18.023Z,28.5
2018-07-04T09:58:18.992Z,28.6
2018-07-04T10:03:17.969Z,29.6
2018-07-04T10:08:18.924Z,29.8
2018-07-04T10:13:17.974Z,29.4
2018-07-04T10:18:37.064Z,29.5
2018-07-04T10:23:36.028Z,29.1
2018-07-04T10:28:36.996Z,29.4
2018-07-04T10:33:37.968Z,29.7
2018-07-04T10:38:35.936Z,29.9
2018-07-04T10:43:35.948Z,29.6
2018-07-04T10:48:46.996Z,29.6
2018-07-04T10:53:46.017Z,29.6
2018-07-04T10:58:46.960Z,29.5
2018-07-04T11:03:46.905Z,28.9
2018-07-04T11:08:46.894Z,29.2
2018-07-04T11:13:46.849Z,29.1
2018-07-04T11:18:55.897Z,29.2
2018-07-04T11:23:53.899Z,29.3
2018-07-04T11:28:54.839Z,29.5
2018-07-04T11:33:53.811Z,29.9
2018-07-04T11:38:54.584Z,29.9
2018-07-04T11:43:55.748Z,30.3
2018-07-04T11:49:07.856Z,30.5
2018-07-04T11:54:07.823Z,30.4
2018-07-04T11:59:06.798Z,30.4
2018-07-04T12:04:06.758Z,30.3
2018-07-04T12:09:09.761Z,29.8
2018-07-04T12:14:06.716Z,29.9
2018-07-04T12:19:15.748Z,30
2018-07-04T12:24:17.738Z,30.2
2018-07-04T12:29:14.707Z,30.7
2018-07-04T12:34:15.657Z,30.7
2018-07-04T12:39:14.648Z,30.9
2018-07-04T12:44:14.620Z,30.6
2018-07-04T12:49:24.674Z,31.1
2018-07-04T12:54:22.693Z,31.1
2018-07-04T12:59:23.662Z,30.4
2018-07-04T13:04:24.573Z,30.5
2018-07-04T13:09:23.546Z,30.4
2018-07-04T13:14:23.522Z,30.3
2018-07-04T13:19:34.658Z,31
2018-07-04T13:24:35.551Z,31.5
2018-07-04T13:29:33.546Z,30.9
2018-07-04T13:34:34.522Z,31.2
2018-07-04T13:39:33.525Z,31.1
2018-07-04T13:44:34.549Z,31
2018-07-04T13:49:49.630Z,31.1
2018-07-04T13:54:47.519Z,31.4
2018-07-04T13:59:48.519Z,31.7
2018-07-04T14:04:50.504Z,31.6
2018-07-04T14:09:48.454Z,31.6
2018-07-04T14:14:49.413Z,31.5
2018-07-04T14:20:00.504Z,31
2018-07-04T14:24:59.469Z,31.3
2018-07-04T14:29:59.455Z,31.3
2018-07-04T14:35:01.457Z,30.7
2018-07-04T14:40:04.420Z,31.1
2018-07-04T14:45:01.404Z,30.9
2018-07-04T14:50:02.343Z,30.8
2018-07-04T14:55:11.409Z,30.6
2018-07-04T15:00:10.366Z,30.7
2018-07-04T15:05:11.364Z,30.8
2018-07-04T15:10:12.869Z,30.6
2018-07-04T15:15:10.315Z,30.8
2018-07-04T15:20:11.268Z,30.9
2018-07-04T15:25:21.339Z,30.8
2018-07-04T15:30:18.313Z,30.2
2018-07-04T15:35:20.256Z,30.3
2018-07-04T15:40:21.248Z,30
2018-07-04T15:45:20.240Z,30.2
2018-07-04T15:50:21.188Z,30.3
2018-07-04T15:55:37.337Z,30.1
2018-07-04T16:00:35.288Z,30.3
2018-07-04T16:05:36.264Z,30.2
2018-07-04T16:10:35.246Z,29.5
2018-07-04T16:15:35.183Z,29.2
2018-07-04T16:20:37.168Z,29.1
2018-07-04T16:25:47.230Z,29.2
2018-07-04T16:30:45.240Z,29.1
2018-07-04T16:35:46.185Z,29
2018-07-04T16:40:45.173Z,28.7
2018-07-04T16:45:45.125Z,28.7
2018-07-04T16:50:46.088Z,28.8
2018-07-04T16:55:50.106Z,28.6
2018-07-04T17:00:49.099Z,28.3
2018-07-04T17:05:49.059Z,28.2
2018-07-04T17:10:51.048Z,28.1
2018-07-04T17:15:50.017Z,27.8
2018-07-04T17:20:49.987Z,27.6
2018-07-04T17:25:59.013Z,27.3
2018-07-04T17:30:55.980Z,27.1
2018-07-04T17:35:57.788Z,26.9
2018-07-04T17:40:58.931Z,26.7
2018-07-04T17:45:58.917Z,26.5
2018-07-04T17:50:59.883Z,26.3
2018-07-04T17:55:59.860Z,26.3
2018-07-04T18:01:10.916Z,26.2
2018-07-04T18:06:08.904Z,26.1
2018-07-04T18:11:08.835Z,25.9
2018-07-04T18:16:08.860Z,25.8
2018-07-04T18:21:09.839Z,25.6
2018-07-04T18:26:10.787Z,25.6
2018-07-04T18:31:19.857Z,25.5
2018-07-04T18:36:18.811Z,25.5
2018-07-04T18:41:19.785Z,25.4
2018-07-04T18:46:20.759Z,25.4
2018-07-04T18:51:18.757Z,25.3
2018-07-04T18:56:19.720Z,25.3
2018-07-04T19:01:18.691Z,25
2018-07-04T19:06:27.744Z,25
2018-07-04T19:11:27.709Z,24.9
2018-07-04T19:16:30.707Z,24.8
2018-07-04T19:21:33.226Z,24.5
2018-07-04T19:26:36.699Z,24.4
2018-07-04T19:31:33.664Z,24.4
2018-07-04T19:36:41.691Z,24.3
2018-07-04T19:41:39.714Z,24.2
2018-07-04T19:46:39.621Z,24.1
2018-07-04T19:51:39.639Z,24.1
2018-07-04T19:56:39.566Z,23.9
2018-07-04T20:01:41.383Z,23.8
2018-07-04T20:06:58.682Z,23.7
2018-07-04T20:11:57.659Z,23.6
2018-07-04T20:16:57.665Z,23.6
2018-07-04T20:21:59.617Z,23.5
2018-07-04T20:26:57.588Z,23.4
2018-07-04T20:31:57.549Z,23.3
2018-07-04T20:36:57.542Z,23.2
2018-07-04T20:42:10.612Z,23
2018-07-04T20:47:08.598Z,22.9
2018-07-04T20:52:08.534Z,22.7
2018-07-04T20:57:14.611Z,22.5
2018-07-04T21:02:14.532Z,22.6
2018-07-04T21:07:14.497Z,22.4
2018-07-04T21:12:30.644Z,22.2
2018-07-04T21:17:31.626Z,22.2
2018-07-04T21:22:33.594Z,22.2
2018-07-04T21:27:30.563Z,22
2018-07-04T21:32:32.529Z,22
2018-07-04T21:37:30.506Z,21.6
2018-07-04T21:42:30.482Z,21.7
2018-07-04T21:47:40.546Z,21.5
2018-07-04T21:52:39.512Z,21.4
2018-07-04T21:57:39.483Z,21.3
2018-07-04T22:02:40.448Z,21.2
2018-07-04T22:07:40.434Z,21.1
2018-07-04T22:12:40.390Z,20.9
2018-07-04T22:17:41.356Z,20.9
2018-07-04T22:22:47.409Z,20.6
2018-07-04T22:27:48.380Z,20.7
2018-07-04T22:32:48.658Z,20.6
2018-07-04T22:37:48.340Z,20.4
2018-07-04T22:42:48.280Z,20.4
2018-07-04T22:47:47.268Z,20.2
2018-07-04T22:53:01.368Z,20.2
2018-07-04T22:57:59.338Z,20.2
2018-07-04T23:02:58.595Z,20
2018-07-04T23:08:02.277Z,20.2
2018-07-04T23:13:00.258Z,20.1
2018-07-04T23:18:00.220Z,20.2
2018-07-04T23:23:10.281Z,20
2018-07-04T23:28:10.253Z,20
2018-07-04T23:33:09.544Z,19.9
2018-07-04T23:38:12.191Z,19.9
2018-07-04T23:43:11.180Z,19.8
2018-07-04T23:48:11.149Z,19.7
2018-07-04T23:53:20.184Z,19.5
2018-07-04T23:58:17.149Z,19.4
